sensor_id;sensor_type;location;lat;lon;timestamp;pressure;altitude;pressure_sealevel;temperature;humidity
11676;BME280;5894;42.768;23.404;2022-07-26T00:00:45;95401.53;;;23.59;89.76
11676;BME280;5894;42.768;23.404;2022-07-26T00:03:12;95405.03;;;23.56;89.96
11676;BME280;5894;42.768;23.404;2022-07-26T00:05:39;95404.25;;;23.52;89.84
11676;BME280;5894;42.768;23.404;2022-07-26T00:08:06;95400.03;;;23.54;88.91
11676;BME280;5894;42.768;23.404;2022-07-26T00:10:40;95404.25;;;23.52;88.84
11676;BME280;5894;42.768;23.404;2022-07-26T00:13:08;95401.56;;;23.41;89.36
11676;BME280;5894;42.768;23.404;2022-07-26T00:15:37;95399.25;;;23.43;89.08
11676;BME280;5894;42.768;23.404;2022-07-26T00:18:04;95398.47;;;23.39;88.99
11676;BME280;5894;42.768;23.404;2022-07-26T00:20:31;95371.22;;;23.23;88.53
11676;BME280;5894;42.768;23.404;2022-07-26T00:22:58;95357.81;;;23.01;89.72
11676;BME280;5894;42.768;23.404;2022-07-26T00:25:25;95400.03;;;23.33;88.77
11676;BME280;5894;42.768;23.404;2022-07-26T00:27:52;95368.16;;;23.17;88.71
11676;BME280;5894;42.768;23.404;2022-07-26T00:30:19;95391.97;;;23.22;89.53
11676;BME280;5894;42.768;23.404;2022-07-26T00:32:47;95382.78;;;23.13;90.32
11676;BME280;5894;42.768;23.404;2022-07-26T00:35:14;95394.69;;;23.15;90.50
11676;BME280;5894;42.768;23.404;2022-07-26T00:37:41;95381.63;;;23.10;91.25
11676;BME280;5894;42.768;23.404;2022-07-26T00:40:10;95385.06;;;23.07;92.08
11676;BME280;5894;42.768;23.404;2022-07-26T00:42:37;95383.16;;;23.08;92.52
11676;BME280;5894;42.768;23.404;2022-07-26T00:45:05;95390.47;;;23.03;93.48
11676;BME280;5894;42.768;23.404;2022-07-26T00:47:33;95384.31;;;23.03;93.64
11676;BME280;5894;42.768;23.404;2022-07-26T00:50:03;95381.22;;;23.08;93.36
11676;BME280;5894;42.768;23.404;2022-07-26T00:52:30;95384.69;;;23.09;93.15
11676;BME280;5894;42.768;23.404;2022-07-26T00:54:57;95387.75;;;23.07;92.74
11676;BME280;5894;42.768;23.404;2022-07-26T00:57:24;95387.00;;;23.03;94.09
11676;BME280;5894;42.768;23.404;2022-07-26T00:59:51;95376.25;;;22.85;93.41
11676;BME280;5894;42.768;23.404;2022-07-26T01:02:17;95396.59;;;22.97;94.81
11676;BME280;5894;42.768;23.404;2022-07-26T01:04:45;95398.53;;;22.82;96.08
11676;BME280;5894;42.768;23.404;2022-07-26T01:07:13;95395.84;;;22.79;96.60
11676;BME280;5894;42.768;23.404;2022-07-26T01:09:41;95392.72;;;22.69;96.55
11676;BME280;5894;42.768;23.404;2022-07-26T01:12:09;95391.56;;;22.67;96.12
11676;BME280;5894;42.768;23.404;2022-07-26T01:14:35;95402.31;;;22.60;97.27
11676;BME280;5894;42.768;23.404;2022-07-26T01:17:05;95401.53;;;22.52;97.54
11676;BME280;5894;42.768;23.404;2022-07-26T01:19:32;95392.31;;;22.46;98.02
11676;BME280;5894;42.768;23.404;2022-07-26T01:22:00;95372.69;;;22.28;98.28
11676;BME280;5894;42.768;23.404;2022-07-26T01:24:27;95394.97;;;22.36;98.59
11676;BME280;5894;42.768;23.404;2022-07-26T01:26:54;95391.53;;;22.31;99.02
11676;BME280;5894;42.768;23.404;2022-07-26T01:29:21;95385.34;;;22.24;99.42
11676;BME280;5894;42.768;23.404;2022-07-26T01:31:49;95389.94;;;22.23;99.51
11676;BME280;5894;42.768;23.404;2022-07-26T01:34:16;95348.41;;;21.89;100.00
11676;BME280;5894;42.768;23.404;2022-07-26T01:36:43;95384.97;;;22.25;99.91
11676;BME280;5894;42.768;23.404;2022-07-26T01:39:12;95381.50;;;22.11;98.86
11676;BME280;5894;42.768;23.404;2022-07-26T01:41:38;95383.41;;;22.14;99.34
11676;BME280;5894;42.768;23.404;2022-07-26T01:44:06;95386.09;;;22.10;100.00
11676;BME280;5894;42.768;23.404;2022-07-26T01:46:33;95382.63;;;22.10;99.54
11676;BME280;5894;42.768;23.404;2022-07-26T01:49:00;95380.69;;;22.03;99.88
11676;BME280;5894;42.768;23.404;2022-07-26T01:51:27;95361.44;;;21.90;98.81
11676;BME280;5894;42.768;23.404;2022-07-26T01:53:54;95385.28;;;21.99;99.28
11676;BME280;5894;42.768;23.404;2022-07-26T01:56:22;95363.31;;;21.79;98.75
11676;BME280;5894;42.768;23.404;2022-07-26T01:58:49;95378.72;;;21.96;99.70
11676;BME280;5894;42.768;23.404;2022-07-26T02:01:16;95390.59;;;21.88;100.00
11676;BME280;5894;42.768;23.404;2022-07-26T02:03:43;95397.47;;;21.86;100.00
11676;BME280;5894;42.768;23.404;2022-07-26T02:06:10;95391.72;;;21.87;100.00
11676;BME280;5894;42.768;23.404;2022-07-26T02:08:36;95401.31;;;21.88;100.00
11676;BME280;5894;42.768;23.404;2022-07-26T02:11:03;95396.31;;;21.83;100.00
11676;BME280;5894;42.768;23.404;2022-07-26T02:13:33;95397.47;;;21.86;100.00
11676;BME280;5894;42.768;23.404;2022-07-26T02:16:00;95402.84;;;21.86;100.00
11676;BME280;5894;42.768;23.404;2022-07-26T02:18:28;95402.06;;;21.85;100.00
11676;BME280;5894;42.768;23.404;2022-07-26T02:20:56;95398.22;;;21.79;100.00
11676;BME280;5894;42.768;23.404;2022-07-26T02:23:24;95374.34;;;21.60;100.00
11676;BME280;5894;42.768;23.404;2022-07-26T02:25:52;95339.75;;;21.41;100.00
11676;BME280;5894;42.768;23.404;2022-07-26T02:28:19;95399.00;;;21.80;100.00
11676;BME280;5894;42.768;23.404;2022-07-26T02:30:49;95380.91;;;21.70;100.00
11676;BME280;5894;42.768;23.404;2022-07-26T02:33:16;95399.34;;;21.78;100.00
11676;BME280;5894;42.768;23.404;2022-07-26T02:35:44;95400.84;;;21.69;100.00
11676;BME280;5894;42.768;23.404;2022-07-26T02:38:13;95398.91;;;21.66;100.00
11676;BME280;5894;42.768;23.404;2022-07-26T02:40:41;95405.03;;;21.63;100.00
11676;BME280;5894;42.768;23.404;2022-07-26T02:43:09;95415.34;;;21.60;100.00
11676;BME280;5894;42.768;23.404;2022-07-26T02:45:36;95408.88;;;21.65;100.00
11676;BME280;5894;42.768;23.404;2022-07-26T02:48:05;95412.66;;;21.60;100.00
11676;BME280;5894;42.768;23.404;2022-07-26T02:50:33;95414.59;;;21.60;100.00
11676;BME280;5894;42.768;23.404;2022-07-26T02:53:00;95415.34;;;21.57;100.00
11676;BME280;5894;42.768;23.404;2022-07-26T02:55:27;95413.78;;;21.49;100.00
11676;BME280;5894;42.768;23.404;2022-07-26T02:57:54;95419.50;;;21.47;100.00
11676;BME280;5894;42.768;23.404;2022-07-26T03:00:23;95416.06;;;21.50;100.00
11676;BME280;5894;42.768;23.404;2022-07-26T03:02:50;95413.34;;;21.43;100.00
11676;BME280;5894;42.768;23.404;2022-07-26T03:05:19;95386.72;;;21.17;100.00
11676;BME280;5894;42.768;23.404;2022-07-26T03:07:46;95418.31;;;21.41;100.00
11676;BME280;5894;42.768;23.404;2022-07-26T03:10:14;95397.56;;;21.28;100.00
11676;BME280;5894;42.768;23.404;2022-07-26T03:12:41;95423.66;;;21.38;100.00
11676;BME280;5894;42.768;23.404;2022-07-26T03:15:09;95431.28;;;21.32;100.00
11676;BME280;5894;42.768;23.404;2022-07-26T03:17:36;95436.66;;;21.32;100.00
11676;BME280;5894;42.768;23.404;2022-07-26T03:20:03;95403.13;;;21.12;100.00
11676;BME280;5894;42.768;23.404;2022-07-26T03:22:32;95431.25;;;21.29;100.00
11676;BME280;5894;42.768;23.404;2022-07-26T03:24:58;95427.88;;;21.35;100.00
11676;BME280;5894;42.768;23.404;2022-07-26T03:27:25;95403.13;;;21.12;100.00
11676;BME280;5894;42.768;23.404;2022-07-26T03:29:52;95437.78;;;21.31;100.00
11676;BME280;5894;42.768;23.404;2022-07-26T03:32:19;95439.28;;;21.29;100.00
11676;BME280;5894;42.768;23.404;2022-07-26T03:34:46;95435.50;;;21.33;100.00
11676;BME280;5894;42.768;23.404;2022-07-26T03:37:13;95436.53;;;21.18;100.00
11676;BME280;5894;42.768;23.404;2022-07-26T03:39:41;95431.50;;;21.13;100.00
11676;BME280;5894;42.768;23.404;2022-07-26T03:42:08;95429.53;;;21.06;100.00
11676;BME280;5894;42.768;23.404;2022-07-26T03:44:35;95431.78;;;21.01;100.00
11676;BME280;5894;42.768;23.404;2022-07-26T03:47:02;95430.59;;;20.98;100.00
11676;BME280;5894;42.768;23.404;2022-07-26T03:49:29;95428.72;;;21.02;100.00
11676;BME280;5894;42.768;23.404;2022-07-26T03:51:55;95425.28;;;21.02;100.00
11676;BME280;5894;42.768;23.404;2022-07-26T03:54:22;95429.88;;;21.01;100.00
11676;BME280;5894;42.768;23.404;2022-07-26T03:56:51;95417.19;;;20.98;100.00
11676;BME280;5894;42.768;23.404;2022-07-26T03:59:17;95419.91;;;21.02;100.00
11676;BME280;5894;42.768;23.404;2022-07-26T04:01:45;95417.69;;;21.11;100.00
11676;BME280;5894;42.768;23.404;2022-07-26T04:04:14;95423.41;;;21.09;100.00
11676;BME280;5894;42.768;23.404;2022-07-26T04:06:42;95419.66;;;21.17;100.00
11676;BME280;5894;42.768;23.404;2022-07-26T04:09:09;95405.78;;;21.05;100.00
11676;BME280;5894;42.768;23.404;2022-07-26T04:11:36;95424.63;;;21.15;100.00
11676;BME280;5894;42.768;23.404;2022-07-26T04:14:05;95420.81;;;21.16;100.00
11676;BME280;5894;42.768;23.404;2022-07-26T04:16:32;95416.59;;;21.15;100.00
11676;BME280;5894;42.768;23.404;2022-07-26T04:18:59;95425.41;;;21.16;100.00
11676;BME280;5894;42.768;23.404;2022-07-26T04:21:26;95424.66;;;21.19;100.00
11676;BME280;5894;42.768;23.404;2022-07-26T04:23:53;95415.03;;;21.14;100.00
11676;BME280;5894;42.768;23.404;2022-07-26T04:26:20;95425.03;;;21.17;100.00
11676;BME280;5894;42.768;23.404;2022-07-26T04:28:47;95420.09;;;21.23;100.00
11676;BME280;5894;42.768;23.404;2022-07-26T04:31:15;95425.19;;;21.35;100.00
11676;BME280;5894;42.768;23.404;2022-07-26T04:33:42;95417.53;;;21.37;100.00
11676;BME280;5894;42.768;23.404;2022-07-26T04:36:09;95414.84;;;21.41;100.00
11676;BME280;5894;42.768;23.404;2022-07-26T04:38:36;95416.41;;;21.42;100.00
11676;BME280;5894;42.768;23.404;2022-07-26T04:41:04;95413.38;;;21.47;100.00
11676;BME280;5894;42.768;23.404;2022-07-26T04:43:30;95418.75;;;21.50;100.00
11676;BME280;5894;42.768;23.404;2022-07-26T04:45:57;95423.34;;;21.50;100.00
11676;BME280;5894;42.768;23.404;2022-07-26T04:48:26;95416.91;;;21.58;100.00
11676;BME280;5894;42.768;23.404;2022-07-26T04:50:53;95416.13;;;21.61;100.00
11676;BME280;5894;42.768;23.404;2022-07-26T04:53:20;95410.41;;;21.66;100.00
11676;BME280;5894;42.768;23.404;2022-07-26T04:55:47;95418.81;;;21.61;100.00
11676;BME280;5894;42.768;23.404;2022-07-26T04:58:14;95423.84;;;21.66;100.00
11676;BME280;5894;42.768;23.404;2022-07-26T05:00:41;95403.47;;;21.58;100.00
11676;BME280;5894;42.768;23.404;2022-07-26T05:03:08;95412.78;;;21.78;100.00
11676;BME280;5894;42.768;23.404;2022-07-26T05:05:36;95415.09;;;21.80;100.00
11676;BME280;5894;42.768;23.404;2022-07-26T05:08:03;95414.75;;;21.88;100.00
11676;BME280;5894;42.768;23.404;2022-07-26T05:10:31;95414.75;;;21.92;100.00
11676;BME280;5894;42.768;23.404;2022-07-26T05:13:00;95390.97;;;21.90;100.00
11676;BME280;5894;42.768;23.404;2022-07-26T05:15:28;95411.78;;;22.15;100.00
11676;BME280;5894;42.768;23.404;2022-07-26T05:18:00;95409.91;;;22.33;100.00
11676;BME280;5894;42.768;23.404;2022-07-26T05:20:27;95403.44;;;22.48;100.00
11676;BME280;5894;42.768;23.404;2022-07-26T05:22:55;95402.69;;;22.65;100.00
11676;BME280;5894;42.768;23.404;2022-07-26T05:25:23;95403.91;;;22.82;100.00
11676;BME280;5894;42.768;23.404;2022-07-26T05:27:49;95408.50;;;23.06;100.00
11676;BME280;5894;42.768;23.404;2022-07-26T05:30:16;95404.66;;;23.22;100.00
11676;BME280;5894;42.768;23.404;2022-07-26T05:32:43;95396.97;;;23.34;99.58
11676;BME280;5894;42.768;23.404;2022-07-26T05:35:10;95342.78;;;23.18;99.37
11676;BME280;5894;42.768;23.404;2022-07-26T05:37:37;95392.31;;;23.60;98.41
11676;BME280;5894;42.768;23.404;2022-07-26T05:40:07;95396.50;;;23.75;96.05
11676;BME280;5894;42.768;23.404;2022-07-26T05:42:34;95404.56;;;23.86;95.72
11676;BME280;5894;42.768;23.404;2022-07-26T05:45:01;95378.03;;;23.81;95.29
11676;BME280;5894;42.768;23.404;2022-07-26T05:47:31;95398.72;;;24.05;96.46
11676;BME280;5894;42.768;23.404;2022-07-26T05:49:58;95400.94;;;24.21;94.98
11676;BME280;5894;42.768;23.404;2022-07-26T05:52:24;95396.72;;;24.27;93.13
11676;BME280;5894;42.768;23.404;2022-07-26T05:54:51;95392.81;;;24.35;92.22
11676;BME280;5894;42.768;23.404;2022-07-26T05:57:19;95391.28;;;24.37;90.76
11676;BME280;5894;42.768;23.404;2022-07-26T05:59:46;95392.31;;;24.50;90.84
11676;BME280;5894;42.768;23.404;2022-07-26T06:02:13;95389.59;;;24.58;89.29
11676;BME280;5894;42.768;23.404;2022-07-26T06:04:40;95391.03;;;24.73;89.11
11676;BME280;5894;42.768;23.404;2022-07-26T06:07:07;95391.31;;;24.85;88.57
11676;BME280;5894;42.768;23.404;2022-07-26T06:09:33;95386.25;;;24.95;88.92
11676;BME280;5894;42.768;23.404;2022-07-26T06:12:00;95388.47;;;25.07;87.57
11676;BME280;5894;42.768;23.404;2022-07-26T06:14:28;95378.75;;;25.16;86.20
11676;BME280;5894;42.768;23.404;2022-07-26T06:16:57;95380.19;;;25.28;85.78
11676;BME280;5894;42.768;23.404;2022-07-26T06:19:28;95332.28;;;25.02;85.06
11676;BME280;5894;42.768;23.404;2022-07-26T06:21:55;95377.69;;;25.48;84.92
11676;BME280;5894;42.768;23.404;2022-07-26T06:24:22;95374.88;;;25.58;85.08
11676;BME280;5894;42.768;23.404;2022-07-26T06:26:49;95376.69;;;25.72;84.94
11676;BME280;5894;42.768;23.404;2022-07-26T06:29:17;95368.88;;;25.81;83.37
11676;BME280;5894;42.768;23.404;2022-07-26T06:31:46;95367.50;;;25.96;82.61
11676;BME280;5894;42.768;23.404;2022-07-26T06:34:13;95365.41;;;26.11;82.38
11676;BME280;5894;42.768;23.404;2022-07-26T06:36:40;95368.00;;;26.18;82.16
11676;BME280;5894;42.768;23.404;2022-07-26T06:39:07;95366.41;;;26.24;82.55
11676;BME280;5894;42.768;23.404;2022-07-26T06:41:34;95365.16;;;26.33;83.16
11676;BME280;5894;42.768;23.404;2022-07-26T06:44:01;95361.81;;;26.48;83.74
11676;BME280;5894;42.768;23.404;2022-07-26T06:46:28;95362.44;;;26.59;83.33
11676;BME280;5894;42.768;23.404;2022-07-26T06:48:56;95364.56;;;26.72;83.31
11676;BME280;5894;42.768;23.404;2022-07-26T06:51:23;95362.13;;;26.81;81.45
11676;BME280;5894;42.768;23.404;2022-07-26T06:53:50;95354.22;;;26.90;80.06
11676;BME280;5894;42.768;23.404;2022-07-26T06:56:18;95353.41;;;26.96;80.56
11676;BME280;5894;42.768;23.404;2022-07-26T06:58:45;95341.13;;;26.88;81.15
11676;BME280;5894;42.768;23.404;2022-07-26T07:01:12;95359.03;;;27.06;81.71
11676;BME280;5894;42.768;23.404;2022-07-26T07:03:39;95245.91;;;26.50;79.86
11676;BME280;5894;42.768;23.404;2022-07-26T07:06:07;95345.50;;;27.29;79.47
11676;BME280;5894;42.768;23.404;2022-07-26T07:08:34;95352.16;;;27.44;78.87
11676;BME280;5894;42.768;23.404;2022-07-26T07:11:01;95346.16;;;27.56;76.75
11676;BME280;5894;42.768;23.404;2022-07-26T07:13:28;95343.66;;;27.65;76.90
11676;BME280;5894;42.768;23.404;2022-07-26T07:15:55;95344.84;;;27.84;76.96
11676;BME280;5894;42.768;23.404;2022-07-26T07:18:22;95356.53;;;28.01;75.74
11676;BME280;5894;42.768;23.404;2022-07-26T07:20:48;95346.50;;;28.18;74.98
11676;BME280;5894;42.768;23.404;2022-07-26T07:23:16;95326.38;;;28.15;73.81
11676;BME280;5894;42.768;23.404;2022-07-26T07:25:46;95340.25;;;28.37;73.30
11676;BME280;5894;42.768;23.404;2022-07-26T07:28:13;95351.06;;;28.57;72.71
11676;BME280;5894;42.768;23.404;2022-07-26T07:30:41;95348.38;;;28.73;70.72
11676;BME280;5894;42.768;23.404;2022-07-26T07:33:08;95352.53;;;28.94;70.00
11676;BME280;5894;42.768;23.404;2022-07-26T07:35:37;95348.81;;;29.04;69.48
11676;BME280;5894;42.768;23.404;2022-07-26T07:38:04;95356.25;;;29.16;68.40
11676;BME280;5894;42.768;23.404;2022-07-26T07:40:32;95355.72;;;29.21;66.56
11676;BME280;5894;42.768;23.404;2022-07-26T07:42:59;95357.59;;;29.40;66.97
11676;BME280;5894;42.768;23.404;2022-07-26T07:45:26;95351.94;;;29.64;63.97
11676;BME280;5894;42.768;23.404;2022-07-26T07:47:53;95353.06;;;29.79;61.59
11676;BME280;5894;42.768;23.404;2022-07-26T07:50:20;95329.69;;;29.81;61.31
11676;BME280;5894;42.768;23.404;2022-07-26T07:52:47;95347.63;;;30.20;60.21
11676;BME280;5894;42.768;23.404;2022-07-26T07:55:14;95312.28;;;30.20;56.17
11676;BME280;5894;42.768;23.404;2022-07-26T07:57:42;95341.13;;;30.56;56.74
11676;BME280;5894;42.768;23.404;2022-07-26T08:00:10;95333.81;;;30.78;56.15
11676;BME280;5894;42.768;23.404;2022-07-26T08:02:40;95334.00;;;31.09;55.92
11676;BME280;5894;42.768;23.404;2022-07-26T08:05:07;95336.19;;;31.36;54.31
11676;BME280;5894;42.768;23.404;2022-07-26T08:07:34;95332.38;;;31.68;52.33
11676;BME280;5894;42.768;23.404;2022-07-26T08:10:01;95330.91;;;31.98;49.76
11676;BME280;5894;42.768;23.404;2022-07-26T08:12:28;95335.47;;;32.23;46.34
11676;BME280;5894;42.768;23.404;2022-07-26T08:14:56;95331.28;;;32.40;45.04
11676;BME280;5894;42.768;23.404;2022-07-26T08:17:23;95321.19;;;32.50;43.43
11676;BME280;5894;42.768;23.404;2022-07-26T08:19:50;95325.81;;;32.71;44.03
11676;BME280;5894;42.768;23.404;2022-07-26T08:22:16;95328.78;;;33.04;44.26
11676;BME280;5894;42.768;23.404;2022-07-26T08:24:43;95317.47;;;33.33;44.29
11676;BME280;5894;42.768;23.404;2022-07-26T08:27:11;95321.53;;;33.56;44.14
11676;BME280;5894;42.768;23.404;2022-07-26T08:29:38;95321.41;;;33.77;44.08
11676;BME280;5894;42.768;23.404;2022-07-26T08:32:06;95305.69;;;34.05;43.28
11676;BME280;5894;42.768;23.404;2022-07-26T08:34:33;95310.81;;;34.21;42.88
11676;BME280;5894;42.768;23.404;2022-07-26T08:37:00;95308.47;;;34.38;42.53
11676;BME280;5894;42.768;23.404;2022-07-26T08:39:27;95301.59;;;34.52;42.11
11676;BME280;5894;42.768;23.404;2022-07-26T08:41:55;95280.13;;;34.50;42.57
11676;BME280;5894;42.768;23.404;2022-07-26T08:44:21;95304.28;;;34.61;41.86
11676;BME280;5894;42.768;23.404;2022-07-26T08:46:48;95305.44;;;34.69;40.74
11676;BME280;5894;42.768;23.404;2022-07-26T08:49:16;95297.63;;;34.86;40.83
11676;BME280;5894;42.768;23.404;2022-07-26T08:51:43;95294.81;;;34.95;41.09
11676;BME280;5894;42.768;23.404;2022-07-26T08:54:12;95304.50;;;35.05;41.13
11676;BME280;5894;42.768;23.404;2022-07-26T08:56:41;95308.84;;;35.12;40.70
11676;BME280;5894;42.768;23.404;2022-07-26T08:59:13;95291.84;;;35.08;41.00
11676;BME280;5894;42.768;23.404;2022-07-26T09:01:51;95297.97;;;35.03;40.56
11676;BME280;5894;42.768;23.404;2022-07-26T09:04:20;95293.59;;;34.96;40.33
11676;BME280;5894;42.768;23.404;2022-07-26T09:06:57;95302.81;;;34.84;39.43
11676;BME280;5894;42.768;23.404;2022-07-26T09:09:25;95294.97;;;34.68;40.29
11676;BME280;5894;42.768;23.404;2022-07-26T09:11:52;95265.88;;;34.46;39.09
11676;BME280;5894;42.768;23.404;2022-07-26T09:14:19;95284.44;;;34.42;39.65
11676;BME280;5894;42.768;23.404;2022-07-26T09:16:56;95290.78;;;34.48;38.75
11676;BME280;5894;42.768;23.404;2022-07-26T09:19:26;95295.63;;;34.11;40.67
11676;BME280;5894;42.768;23.404;2022-07-26T09:21:53;95289.25;;;34.14;40.47
11676;BME280;5894;42.768;23.404;2022-07-26T09:24:29;95295.06;;;33.98;40.37
11676;BME280;5894;42.768;23.404;2022-07-26T09:26:58;95293.00;;;33.84;39.01
11676;BME280;5894;42.768;23.404;2022-07-26T09:29:26;95290.84;;;33.70;39.72
11676;BME280;5894;42.768;23.404;2022-07-26T09:32:09;95292.56;;;33.49;40.07
11676;BME280;5894;42.768;23.404;2022-07-26T09:34:38;95286.66;;;33.32;39.36
11676;BME280;5894;42.768;23.404;2022-07-26T09:37:05;95288.00;;;33.28;39.17
11676;BME280;5894;42.768;23.404;2022-07-26T09:39:32;95289.34;;;33.23;37.16
11676;BME280;5894;42.768;23.404;2022-07-26T09:42:05;95288.28;;;33.11;37.00
11676;BME280;5894;42.768;23.404;2022-07-26T09:44:39;95264.41;;;32.85;36.26
11676;BME280;5894;42.768;23.404;2022-07-26T09:47:06;95275.78;;;32.83;38.05
11676;BME280;5894;42.768;23.404;2022-07-26T09:49:33;95278.16;;;32.63;36.66
11676;BME280;5894;42.768;23.404;2022-07-26T09:52:07;95276.34;;;32.60;37.23
11676;BME280;5894;42.768;23.404;2022-07-26T09:54:39;95273.13;;;32.52;38.00
11676;BME280;5894;42.768;23.404;2022-07-26T09:57:06;95244.22;;;32.24;36.50
11676;BME280;5894;42.768;23.404;2022-07-26T09:59:33;95260.91;;;32.26;35.49
11676;BME280;5894;42.768;23.404;2022-07-26T10:02:00;95265.75;;;32.22;36.66
11676;BME280;5894;42.768;23.404;2022-07-26T10:04:27;95263.78;;;32.22;37.05
11676;BME280;5894;42.768;23.404;2022-07-26T10:06:54;95258.91;;;32.17;35.28
11676;BME280;5894;42.768;23.404;2022-07-26T10:09:24;95258.84;;;32.08;34.73
11676;BME280;5894;42.768;23.404;2022-07-26T10:11:59;95258.69;;;32.12;34.31
11676;BME280;5894;42.768;23.404;2022-07-26T10:14:36;95255.06;;;32.05;32.86
11676;BME280;5894;42.768;23.404;2022-07-26T10:20:37;95243.19;;;31.99;32.00
11676;BME280;5894;42.768;23.404;2022-07-26T10:23:31;95249.28;;;32.03;32.94
11676;BME280;5894;42.768;23.404;2022-07-26T10:26:00;95205.81;;;31.78;34.44
11676;BME280;5894;42.768;23.404;2022-07-26T10:28:29;95241.97;;;32.00;34.89
11676;BME280;5894;42.768;23.404;2022-07-26T10:31:27;95241.53;;;32.02;34.52
11676;BME280;5894;42.768;23.404;2022-07-26T10:33:58;95234.03;;;31.84;34.98
11676;BME280;5894;42.768;23.404;2022-07-26T10:36:30;95226.63;;;31.85;32.89
11676;BME280;5894;42.768;23.404;2022-07-26T10:39:07;95227.38;;;31.85;32.75
11676;BME280;5894;42.768;23.404;2022-07-26T10:41:39;95155.81;;;31.41;32.86
11676;BME280;5894;42.768;23.404;2022-07-26T10:44:19;95224.22;;;31.87;33.92
11676;BME280;5894;42.768;23.404;2022-07-26T10:47:09;95218.16;;;31.92;34.29
11676;BME280;5894;42.768;23.404;2022-07-26T10:49:38;95215.75;;;31.94;34.64
11676;BME280;5894;42.768;23.404;2022-07-26T10:52:11;95217.88;;;31.99;33.36
11676;BME280;5894;42.768;23.404;2022-07-26T10:55:04;95218.97;;;32.01;33.58
11676;BME280;5894;42.768;23.404;2022-07-26T10:57:34;95185.28;;;31.86;33.83
11676;BME280;5894;42.768;23.404;2022-07-26T11:00:07;95213.97;;;32.09;34.47
11676;BME280;5894;42.768;23.404;2022-07-26T11:02:34;95210.09;;;32.19;33.76
11676;BME280;5894;42.768;23.404;2022-07-26T11:05:03;95152.25;;;31.84;32.20
11676;BME280;5894;42.768;23.404;2022-07-26T11:07:47;95196.59;;;32.16;32.49
11676;BME280;5894;42.768;23.404;2022-07-26T11:10:14;95153.31;;;31.87;32.40
11676;BME280;5894;42.768;23.404;2022-07-26T11:12:43;95185.06;;;32.12;33.06
11676;BME280;5894;42.768;23.404;2022-07-26T11:15:14;95124.31;;;31.71;34.44
11676;BME280;5894;42.768;23.404;2022-07-26T11:17:41;95183.72;;;32.16;34.66
11676;BME280;5894;42.768;23.404;2022-07-26T11:20:09;95144.88;;;32.03;33.23
11676;BME280;5894;42.768;23.404;2022-07-26T11:22:36;95177.25;;;32.32;34.42
11676;BME280;5894;42.768;23.404;2022-07-26T11:25:04;95175.91;;;32.36;32.81
11676;BME280;5894;42.768;23.404;2022-07-26T11:27:31;95171.97;;;32.37;33.32
11676;BME280;5894;42.768;23.404;2022-07-26T11:30:03;95150.13;;;32.37;34.47
11676;BME280;5894;42.768;23.404;2022-07-26T11:32:30;95134.19;;;32.27;34.04
11676;BME280;5894;42.768;23.404;2022-07-26T11:34:58;95160.44;;;32.42;33.99
11676;BME280;5894;42.768;23.404;2022-07-26T11:37:25;95158.78;;;32.54;35.25
11676;BME280;5894;42.768;23.404;2022-07-26T11:39:52;95157.44;;;32.59;34.89
11676;BME280;5894;42.768;23.404;2022-07-26T11:42:19;95155.59;;;32.65;31.91
11676;BME280;5894;42.768;23.404;2022-07-26T11:44:48;95147.44;;;32.74;33.35
11676;BME280;5894;42.768;23.404;2022-07-26T11:47:18;95143.34;;;32.88;31.63
11676;BME280;5894;42.768;23.404;2022-07-26T11:49:46;95140.94;;;32.90;31.59
11676;BME280;5894;42.768;23.404;2022-07-26T11:52:13;95140.75;;;32.84;32.17
11676;BME280;5894;42.768;23.404;2022-07-26T11:54:45;95140.16;;;32.89;33.70
11676;BME280;5894;42.768;23.404;2022-07-26T11:57:12;95126.03;;;33.00;33.86
11676;BME280;5894;42.768;23.404;2022-07-26T11:59:40;95138.00;;;33.21;32.34
11676;BME280;5894;42.768;23.404;2022-07-26T12:02:09;95134.81;;;33.22;31.25
11676;BME280;5894;42.768;23.404;2022-07-26T12:04:38;95131.31;;;33.31;31.68
11676;BME280;5894;42.768;23.404;2022-07-26T12:07:09;95128.53;;;33.49;33.12
11676;BME280;5894;42.768;23.404;2022-07-26T12:09:37;95128.38;;;33.85;32.83
11676;BME280;5894;42.768;23.404;2022-07-26T12:12:07;95124.41;;;34.19;32.69
11676;BME280;5894;42.768;23.404;2022-07-26T12:14:36;95062.81;;;34.00;32.75
11676;BME280;5894;42.768;23.404;2022-07-26T12:17:12;95121.56;;;34.38;32.21
11676;BME280;5894;42.768;23.404;2022-07-26T12:19:41;95122.69;;;34.31;32.32
11676;BME280;5894;42.768;23.404;2022-07-26T12:22:09;95117.31;;;34.37;34.07
11676;BME280;5894;42.768;23.404;2022-07-26T12:24:53;95113.41;;;34.52;33.65
11676;BME280;5894;42.768;23.404;2022-07-26T12:27:22;95110.13;;;34.63;31.94
11676;BME280;5894;42.768;23.404;2022-07-26T12:29:51;95112.03;;;34.72;32.63
11676;BME280;5894;42.768;23.404;2022-07-26T12:32:19;95111.34;;;35.15;31.07
11676;BME280;5894;42.768;23.404;2022-07-26T12:34:56;95107.75;;;35.68;30.14
11676;BME280;5894;42.768;23.404;2022-07-26T12:37:24;95109.69;;;35.97;29.40
11676;BME280;5894;42.768;23.404;2022-07-26T12:39:59;95108.06;;;36.25;29.59
11676;BME280;5894;42.768;23.404;2022-07-26T12:42:28;95112.13;;;36.50;28.59
11676;BME280;5894;42.768;23.404;2022-07-26T12:44:56;95055.03;;;36.34;28.05
11676;BME280;5894;42.768;23.404;2022-07-26T12:47:23;95101.81;;;36.86;30.92
11676;BME280;5894;42.768;23.404;2022-07-26T12:49:51;95104.75;;;37.08;29.87
11676;BME280;5894;42.768;23.404;2022-07-26T12:52:20;95099.31;;;37.13;30.60
11676;BME280;5894;42.768;23.404;2022-07-26T12:54:49;95093.81;;;36.88;28.46
11676;BME280;5894;42.768;23.404;2022-07-26T12:57:17;95084.31;;;36.83;29.45
11676;BME280;5894;42.768;23.404;2022-07-26T12:59:45;95098.94;;;37.00;28.91
11676;BME280;5894;42.768;23.404;2022-07-26T13:02:12;95103.00;;;37.05;28.22
11676;BME280;5894;42.768;23.404;2022-07-26T13:04:39;95092.38;;;37.18;27.98
11676;BME280;5894;42.768;23.404;2022-07-26T13:07:06;95087.22;;;37.26;28.05